createdAt,value
2017-01-07T00:02:08.055Z,0
2017-01-07T00:07:08.397Z,0
2017-01-07T00:12:07.966Z,0
2017-01-07T00:17:07.921Z,0
2017-01-07T00:22:07.867Z,0
2017-01-07T00:27:08.202Z,0
2017-01-07T00:32:08.168Z,0
2017-01-07T00:37:08.101Z,0
2017-01-07T00:42:08.055Z,0
2017-01-07T00:47:08.007Z,0
2017-01-07T00:52:07.950Z,0
2017-01-07T00:57:07.135Z,0
2017-01-07T01:02:07.480Z,0
2017-01-07T01:07:07.826Z,0
2017-01-07T01:12:07.368Z,0
2017-01-07T01:17:07.707Z,0
2017-01-07T01:22:07.656Z,0
2017-01-07T01:27:07.608Z,0
2017-01-07T01:32:07.198Z,0
2017-01-07T01:37:07.123Z,0
2017-01-07T01:42:07.459Z,0
2017-01-07T01:47:07.408Z,0
2017-01-07T01:52:07.359Z,0
2017-01-07T01:57:06.920Z,0
2017-01-07T02:02:06.487Z,0
2017-01-07T02:07:07.219Z,0
2017-01-07T02:12:06.395Z,0
2017-01-07T02:17:07.110Z,0
2017-01-07T02:22:07.065Z,0
2017-01-07T02:27:07.016Z,0
2017-01-07T02:32:06.585Z,0
2017-01-07T02:37:06.515Z,0
2017-01-07T02:42:06.869Z,0
2017-01-07T02:47:06.421Z,0
2017-01-07T02:52:06.363Z,0
2017-01-07T02:57:06.334Z,0
2017-01-07T03:02:05.878Z,0
2017-01-07T03:07:06.600Z,0
2017-01-07T03:12:06.167Z,0
2017-01-07T03:17:05.726Z,0
2017-01-07T03:22:06.071Z,0
2017-01-07T03:27:06.021Z,0
2017-01-07T03:32:05.963Z,0
2017-01-07T03:37:05.913Z,0
2017-01-07T03:42:05.857Z,0
2017-01-07T03:47:05.815Z,0
2017-01-07T03:52:06.148Z,0
2017-01-07T03:57:06.094Z,0
2017-01-07T04:02:05.655Z,0
2017-01-07T04:07:05.608Z,0
2017-01-07T04:12:05.942Z,0
2017-01-07T04:17:05.889Z,0
2017-01-07T04:22:05.459Z,0
2017-01-07T04:27:05.401Z,0
2017-01-07T04:32:05.351Z,0
2017-01-07T04:37:05.300Z,0
2017-01-07T04:42:05.270Z,0
2017-01-07T04:47:05.588Z,0
2017-01-07T04:52:05.539Z,0
2017-01-07T04:57:04.711Z,0
2017-01-07T05:02:05.421Z,0
2017-01-07T05:07:05.004Z,0
2017-01-07T05:12:04.930Z,0
2017-01-07T05:17:04.880Z,0
2017-01-07T05:22:05.224Z,0
2017-01-07T05:27:05.165Z,0
2017-01-07T05:32:04.718Z,0
2017-01-07T05:37:05.065Z,0
2017-01-07T05:42:05.002Z,0
2017-01-07T05:47:04.571Z,0
2017-01-07T05:52:04.516Z,0
2017-01-07T05:57:04.846Z,0
2017-01-07T06:02:03.624Z,0
2017-01-07T06:07:04.747Z,0
2017-01-07T06:12:04.296Z,0
2017-01-07T06:17:04.246Z,0
2017-01-07T06:22:04.575Z,0
2017-01-07T06:27:04.523Z,0
2017-01-07T06:32:04.084Z,0
2017-01-07T06:37:04.431Z,0
2017-01-07T06:42:03.981Z,0
2017-01-07T06:47:04.320Z,0
2017-01-07T06:52:03.114Z,0
2017-01-07T06:57:03.851Z,0
2017-01-07T07:02:03.424Z,0
2017-01-07T07:07:04.160Z,0
2017-01-07T07:12:03.724Z,0
2017-01-07T07:17:04.075Z,0
2017-01-07T07:22:02.881Z,0
2017-01-07T07:27:03.611Z,4
2017-01-07T07:32:03.565Z,12
2017-01-07T07:37:03.532Z,12
2017-01-07T07:42:03.906Z,24
2017-01-07T07:47:03.840Z,32
2017-01-07T07:52:03.395Z,40
2017-01-07T07:57:03.372Z,56
2017-01-07T08:02:03.705Z,72
2017-01-07T08:07:02.887Z,84
2017-01-07T08:12:02.853Z,108
2017-01-07T08:17:03.195Z,104
2017-01-07T08:22:03.150Z,136
2017-01-07T08:27:03.524Z,160
2017-01-07T08:32:03.079Z,192
2017-01-07T08:37:03.026Z,232
2017-01-07T08:42:02.994Z,248
2017-01-07T08:47:02.563Z,308
2017-01-07T08:52:03.292Z,336
2017-01-07T08:57:03.253Z,444
2017-01-07T09:02:02.852Z,476
2017-01-07T09:07:02.787Z,560
2017-01-07T09:12:02.753Z,560
2017-01-07T09:17:02.692Z,600
2017-01-07T09:22:03.057Z,560
2017-01-07T09:27:03.007Z,620
2017-01-07T09:32:02.576Z,636
2017-01-07T09:37:02.539Z,508
2017-01-07T09:42:02.893Z,536
2017-01-07T09:47:02.856Z,740
2017-01-07T09:52:02.820Z,952
2017-01-07T09:57:02.376Z,892
2017-01-07T10:02:02.345Z,808
2017-01-07T10:07:02.299Z,796
2017-01-07T10:12:02.650Z,752
2017-01-07T10:17:02.623Z,772
2017-01-07T10:22:02.175Z,708
2017-01-07T10:27:02.146Z,736
2017-01-07T10:32:02.489Z,824
2017-01-07T10:37:02.055Z,952
2017-01-07T10:42:02.016Z,940
2017-01-07T10:47:01.991Z,884
2017-01-07T10:52:01.943Z,988
2017-01-07T10:57:01.918Z,880
2017-01-07T11:02:01.866Z,916
2017-01-07T11:07:02.243Z,996
2017-01-07T11:12:02.174Z,932
2017-01-07T11:17:02.143Z,940
2017-01-07T11:22:01.328Z,940
2017-01-07T11:27:01.682Z,984
2017-01-07T11:32:01.641Z,1248
2017-01-07T11:37:01.991Z,1300
2017-01-07T11:42:01.565Z,1312
2017-01-07T11:47:01.530Z,1200
2017-01-07T11:52:01.886Z,1016
2017-01-07T11:57:01.862Z,964
2017-01-07T12:02:01.813Z,808
2017-01-07T12:07:01.774Z,720
2017-01-07T12:12:01.736Z,700
2017-01-07T12:17:01.313Z,696
2017-01-07T12:22:01.681Z,708
2017-01-07T12:27:01.263Z,704
2017-01-07T12:32:01.203Z,712
2017-01-07T12:37:00.790Z,872
2017-01-07T12:42:01.142Z,912
2017-01-07T12:47:01.505Z,820
2017-01-07T12:52:01.073Z,720
2017-01-07T12:57:00.651Z,840
2017-01-07T13:02:00.221Z,804
2017-01-07T13:07:01.361Z,840
2017-01-07T13:12:01.317Z,772
2017-01-07T13:17:00.890Z,876
2017-01-07T13:22:01.250Z,760
2017-01-07T13:27:00.819Z,760
2017-01-07T13:32:01.176Z,812
2017-01-07T13:37:01.141Z,712
2017-01-07T13:42:01.095Z,724
2017-01-07T13:47:00.684Z,900
2017-01-07T13:52:00.642Z,692
2017-01-07T13:57:00.620Z,768
2017-01-07T14:02:00.978Z,708
2017-01-07T14:07:00.921Z,636
2017-01-07T14:12:00.103Z,688
2017-01-07T14:17:00.859Z,804
2017-01-07T14:22:00.828Z,516
2017-01-07T14:27:00.781Z,508
2017-01-07T14:32:00.356Z,488
2017-01-07T14:36:59.935Z,416
2017-01-07T17:53:33.815Z,8
2017-01-07T17:58:33.774Z,8
2017-01-07T18:03:33.179Z,8
2017-01-07T18:08:33.334Z,12
2017-01-07T18:13:33.300Z,8
2017-01-07T18:18:33.676Z,8
2017-01-07T18:23:33.667Z,8
2017-01-07T18:28:33.235Z,8
2017-01-07T18:33:32.827Z,8
2017-01-07T18:38:32.790Z,12
2017-01-07T18:43:33.544Z,12
2017-01-07T18:48:33.518Z,12
2017-01-07T18:53:33.101Z,12
2017-01-07T18:58:33.084Z,12
2017-01-07T19:03:33.061Z,8
2017-01-07T19:08:32.653Z,12
2017-01-07T19:13:33.020Z,12
2017-01-07T19:18:32.997Z,12
2017-01-07T19:23:33.386Z,0
2017-01-07T19:28:32.953Z,0
2017-01-07T19:33:32.993Z,0
2017-01-07T19:38:32.516Z,0
2017-01-07T19:43:33.438Z,0
2017-01-07T19:48:32.783Z,0
2017-01-07T19:53:33.053Z,0
2017-01-07T19:58:33.023Z,0
2017-01-07T20:03:33.379Z,0
2017-01-07T20:08:33.782Z,0
2017-01-07T20:13:32.929Z,0
2017-01-07T20:18:33.292Z,0
2017-01-07T20:23:33.353Z,0
2017-01-07T20:28:33.275Z,0
2017-01-07T20:33:33.314Z,0
2017-01-07T20:38:33.647Z,0
2017-01-07T20:43:33.189Z,0
2017-01-07T20:48:32.871Z,0
2017-01-07T20:53:33.511Z,0
2017-01-07T20:58:32.803Z,0
2017-01-07T21:03:33.425Z,0
2017-01-07T21:08:33.083Z,0
2017-01-07T21:13:33.321Z,0
2017-01-07T21:18:32.680Z,0
2017-01-07T21:23:33.086Z,0
2017-01-07T21:28:32.322Z,0
2017-01-07T21:33:32.394Z,0
2017-01-07T21:38:32.657Z,0
2017-01-07T21:43:32.681Z,0
2017-01-07T21:48:32.409Z,0
2017-01-07T21:53:32.789Z,0
2017-01-07T21:58:32.791Z,0
2017-01-07T22:03:32.688Z,0
2017-01-07T22:08:32.156Z,0
2017-01-07T22:13:32.619Z,0
2017-01-07T22:18:32.757Z,0
2017-01-07T22:23:32.125Z,0
2017-01-07T22:28:32.069Z,0
2017-01-07T22:33:32.037Z,0
2017-01-07T22:38:31.983Z,0
2017-01-07T22:43:31.945Z,0
2017-01-07T22:48:31.141Z,0
2017-01-07T22:53:31.887Z,0
2017-01-07T22:58:31.469Z,0
2017-01-07T23:03:31.830Z,0
2017-01-07T23:08:31.818Z,0
2017-01-07T23:13:31.778Z,0
2017-01-07T23:18:31.363Z,0
2017-01-07T23:23:32.117Z,0
2017-01-07T23:28:31.701Z,0
2017-01-07T23:33:31.669Z,0
2017-01-07T23:38:32.015Z,0
2017-01-07T23:43:31.991Z,0
2017-01-07T23:48:31.959Z,0
2017-01-07T23:53:31.943Z,0
2017-01-07T23:58:31.121Z,0
